sensor_id;sensor_type;location;lat;lon;timestamp;temperature;humidity
39493;DHT22;25176;51.060;3.720;2023-04-24T00:00:57;11.90;99.90
39493;DHT22;25176;51.060;3.720;2023-04-24T00:03:24;11.80;99.90
39493;DHT22;25176;51.060;3.720;2023-04-24T00:05:49;11.80;99.90
39493;DHT22;25176;51.060;3.720;2023-04-24T00:08:16;11.80;99.90
39493;DHT22;25176;51.060;3.720;2023-04-24T00:10:42;11.80;99.90
39493;DHT22;25176;51.060;3.720;2023-04-24T00:13:07;11.80;99.90
39493;DHT22;25176;51.060;3.720;2023-04-24T00:15:33;11.80;99.90
39493;DHT22;25176;51.060;3.720;2023-04-24T00:17:58;11.80;99.90
39493;DHT22;25176;51.060;3.720;2023-04-24T00:20:24;11.80;99.90
39493;DHT22;25176;51.060;3.720;2023-04-24T00:22:49;11.90;99.90
39493;DHT22;25176;51.060;3.720;2023-04-24T00:25:15;11.90;99.90
39493;DHT22;25176;51.060;3.720;2023-04-24T00:27:40;11.90;99.90
39493;DHT22;25176;51.060;3.720;2023-04-24T00:30:06;11.90;99.90
39493;DHT22;25176;51.060;3.720;2023-04-24T00:32:32;11.80;99.90
39493;DHT22;25176;51.060;3.720;2023-04-24T00:34:57;11.70;99.90
39493;DHT22;25176;51.060;3.720;2023-04-24T00:37:23;11.70;99.90
39493;DHT22;25176;51.060;3.720;2023-04-24T00:39:48;11.60;99.90
39493;DHT22;25176;51.060;3.720;2023-04-24T00:42:14;11.70;99.90
39493;DHT22;25176;51.060;3.720;2023-04-24T00:44:39;11.70;99.90
39493;DHT22;25176;51.060;3.720;2023-04-24T00:47:05;11.60;99.90
39493;DHT22;25176;51.060;3.720;2023-04-24T00:49:31;11.60;99.90
39493;DHT22;25176;51.060;3.720;2023-04-24T00:51:56;11.60;99.90
39493;DHT22;25176;51.060;3.720;2023-04-24T00:54:22;11.60;99.90
39493;DHT22;25176;51.060;3.720;2023-04-24T00:56:47;11.60;99.90
39493;DHT22;25176;51.060;3.720;2023-04-24T00:59:14;11.60;99.90
39493;DHT22;25176;51.060;3.720;2023-04-24T01:01:41;11.80;99.90
39493;DHT22;25176;51.060;3.720;2023-04-24T01:04:07;11.70;99.90
39493;DHT22;25176;51.060;3.720;2023-04-24T01:06:33;11.70;99.90
39493;DHT22;25176;51.060;3.720;2023-04-24T01:08:59;11.70;99.90
39493;DHT22;25176;51.060;3.720;2023-04-24T01:11:25;11.60;99.90
39493;DHT22;25176;51.060;3.720;2023-04-24T01:13:51;11.60;99.90
39493;DHT22;25176;51.060;3.720;2023-04-24T01:16:17;11.60;99.90
39493;DHT22;25176;51.060;3.720;2023-04-24T01:18:43;11.60;99.90
39493;DHT22;25176;51.060;3.720;2023-04-24T01:21:09;11.60;99.90
39493;DHT22;25176;51.060;3.720;2023-04-24T01:23:36;11.70;99.90
39493;DHT22;25176;51.060;3.720;2023-04-24T01:26:01;11.70;99.90
39493;DHT22;25176;51.060;3.720;2023-04-24T01:28:27;11.60;99.90
39493;DHT22;25176;51.060;3.720;2023-04-24T01:30:52;11.50;99.90
39493;DHT22;25176;51.060;3.720;2023-04-24T01:33:18;11.70;99.90
39493;DHT22;25176;51.060;3.720;2023-04-24T01:35:46;11.50;99.90
39493;DHT22;25176;51.060;3.720;2023-04-24T01:38:11;11.50;99.90
39493;DHT22;25176;51.060;3.720;2023-04-24T01:40:37;11.50;99.90
39493;DHT22;25176;51.060;3.720;2023-04-24T01:43:02;11.50;99.90
39493;DHT22;25176;51.060;3.720;2023-04-24T01:45:28;11.40;99.90
39493;DHT22;25176;51.060;3.720;2023-04-24T01:47:53;11.40;99.90
39493;DHT22;25176;51.060;3.720;2023-04-24T01:50:19;11.30;99.90
39493;DHT22;25176;51.060;3.720;2023-04-24T01:52:44;11.40;99.90
39493;DHT22;25176;51.060;3.720;2023-04-24T01:55:10;11.50;99.90
39493;DHT22;25176;51.060;3.720;2023-04-24T01:57:36;11.40;99.90
39493;DHT22;25176;51.060;3.720;2023-04-24T02:00:02;11.40;99.90
39493;DHT22;25176;51.060;3.720;2023-04-24T02:02:29;11.30;99.90
39493;DHT22;25176;51.060;3.720;2023-04-24T02:04:55;11.20;99.90
39493;DHT22;25176;51.060;3.720;2023-04-24T02:07:20;11.20;99.90
39493;DHT22;25176;51.060;3.720;2023-04-24T02:09:46;11.20;99.90
39493;DHT22;25176;51.060;3.720;2023-04-24T02:12:12;11.20;99.90
39493;DHT22;25176;51.060;3.720;2023-04-24T02:14:37;11.20;99.90
39493;DHT22;25176;51.060;3.720;2023-04-24T02:17:03;11.20;99.90
39493;DHT22;25176;51.060;3.720;2023-04-24T02:19:28;11.20;99.90
39493;DHT22;25176;51.060;3.720;2023-04-24T02:21:54;11.20;99.90
39493;DHT22;25176;51.060;3.720;2023-04-24T02:24:19;11.10;99.90
39493;DHT22;25176;51.060;3.720;2023-04-24T02:26:45;11.00;99.90
39493;DHT22;25176;51.060;3.720;2023-04-24T02:29:10;11.10;99.90
39493;DHT22;25176;51.060;3.720;2023-04-24T02:31:36;11.10;99.90
39493;DHT22;25176;51.060;3.720;2023-04-24T02:34:01;11.00;99.90
39493;DHT22;25176;51.060;3.720;2023-04-24T02:36:27;11.10;99.90
39493;DHT22;25176;51.060;3.720;2023-04-24T02:38:52;11.20;99.90
39493;DHT22;25176;51.060;3.720;2023-04-24T02:41:18;11.20;99.90
39493;DHT22;25176;51.060;3.720;2023-04-24T02:43:43;11.30;99.90
39493;DHT22;25176;51.060;3.720;2023-04-24T02:46:09;11.20;99.90
39493;DHT22;25176;51.060;3.720;2023-04-24T02:48:34;11.30;99.90
39493;DHT22;25176;51.060;3.720;2023-04-24T02:51:00;11.20;99.90
39493;DHT22;25176;51.060;3.720;2023-04-24T02:53:26;11.40;99.90
39493;DHT22;25176;51.060;3.720;2023-04-24T02:55:51;11.50;99.90
39493;DHT22;25176;51.060;3.720;2023-04-24T02:58:17;11.40;99.90
39493;DHT22;25176;51.060;3.720;2023-04-24T03:00:45;11.40;99.90
39493;DHT22;25176;51.060;3.720;2023-04-24T03:03:11;11.30;99.90
39493;DHT22;25176;51.060;3.720;2023-04-24T03:05:36;11.30;99.90
39493;DHT22;25176;51.060;3.720;2023-04-24T03:08:02;11.20;99.90
39493;DHT22;25176;51.060;3.720;2023-04-24T03:10:27;11.10;99.90
39493;DHT22;25176;51.060;3.720;2023-04-24T03:12:52;11.10;99.90
39493;DHT22;25176;51.060;3.720;2023-04-24T03:15:20;11.20;99.90
39493;DHT22;25176;51.060;3.720;2023-04-24T03:17:45;11.20;99.90
39493;DHT22;25176;51.060;3.720;2023-04-24T03:20:12;11.00;99.90
39493;DHT22;25176;51.060;3.720;2023-04-24T03:22:38;11.00;99.90
39493;DHT22;25176;51.060;3.720;2023-04-24T03:25:03;11.10;99.90
39493;DHT22;25176;51.060;3.720;2023-04-24T03:27:29;11.20;99.90
39493;DHT22;25176;51.060;3.720;2023-04-24T03:29:55;11.10;99.90
39493;DHT22;25176;51.060;3.720;2023-04-24T03:32:21;11.20;99.90
39493;DHT22;25176;51.060;3.720;2023-04-24T03:34:48;11.30;99.90
39493;DHT22;25176;51.060;3.720;2023-04-24T03:37:14;11.20;99.90
39493;DHT22;25176;51.060;3.720;2023-04-24T03:39:40;11.00;99.90
39493;DHT22;25176;51.060;3.720;2023-04-24T03:42:05;11.00;99.90
39493;DHT22;25176;51.060;3.720;2023-04-24T03:44:31;11.20;99.90
39493;DHT22;25176;51.060;3.720;2023-04-24T03:46:57;11.00;99.90
39493;DHT22;25176;51.060;3.720;2023-04-24T03:49:23;11.00;99.90
39493;DHT22;25176;51.060;3.720;2023-04-24T03:51:48;11.00;99.90
39493;DHT22;25176;51.060;3.720;2023-04-24T03:54:14;10.90;99.90
39493;DHT22;25176;51.060;3.720;2023-04-24T03:56:39;10.90;99.90
39493;DHT22;25176;51.060;3.720;2023-04-24T03:59:05;10.90;99.90
39493;DHT22;25176;51.060;3.720;2023-04-24T04:01:30;10.90;99.90
39493;DHT22;25176;51.060;3.720;2023-04-24T04:03:56;10.90;99.90
39493;DHT22;25176;51.060;3.720;2023-04-24T04:06:21;10.80;99.90
39493;DHT22;25176;51.060;3.720;2023-04-24T04:08:47;10.90;99.90
39493;DHT22;25176;51.060;3.720;2023-04-24T04:11:13;11.00;99.90
39493;DHT22;25176;51.060;3.720;2023-04-24T04:13:38;11.00;99.90
39493;DHT22;25176;51.060;3.720;2023-04-24T04:16:04;11.00;99.90
39493;DHT22;25176;51.060;3.720;2023-04-24T04:18:29;10.90;99.90
39493;DHT22;25176;51.060;3.720;2023-04-24T04:20:55;10.90;99.90
39493;DHT22;25176;51.060;3.720;2023-04-24T04:23:22;10.80;99.90
39493;DHT22;25176;51.060;3.720;2023-04-24T04:25:47;10.70;99.90
39493;DHT22;25176;51.060;3.720;2023-04-24T04:28:13;10.70;99.90
39493;DHT22;25176;51.060;3.720;2023-04-24T04:30:38;10.70;99.90
39493;DHT22;25176;51.060;3.720;2023-04-24T04:33:05;10.80;99.90
39493;DHT22;25176;51.060;3.720;2023-04-24T04:35:30;10.80;99.90
39493;DHT22;25176;51.060;3.720;2023-04-24T04:37:56;10.80;99.90
39493;DHT22;25176;51.060;3.720;2023-04-24T04:40:24;10.90;99.90
39493;DHT22;25176;51.060;3.720;2023-04-24T04:42:50;10.90;99.90
39493;DHT22;25176;51.060;3.720;2023-04-24T04:45:18;10.80;99.90
39493;DHT22;25176;51.060;3.720;2023-04-24T04:47:44;10.90;99.90
39493;DHT22;25176;51.060;3.720;2023-04-24T04:50:09;10.90;99.90
39493;DHT22;25176;51.060;3.720;2023-04-24T04:52:35;10.80;99.90
39493;DHT22;25176;51.060;3.720;2023-04-24T04:55:01;10.80;99.90
39493;DHT22;25176;51.060;3.720;2023-04-24T04:57:27;10.80;99.90
39493;DHT22;25176;51.060;3.720;2023-04-24T04:59:52;10.80;99.90
39493;DHT22;25176;51.060;3.720;2023-04-24T05:02:18;10.80;99.90
39493;DHT22;25176;51.060;3.720;2023-04-24T05:04:43;10.70;99.90
39493;DHT22;25176;51.060;3.720;2023-04-24T05:07:10;10.90;99.90
39493;DHT22;25176;51.060;3.720;2023-04-24T05:09:36;10.90;99.90
39493;DHT22;25176;51.060;3.720;2023-04-24T05:12:01;10.90;99.90
39493;DHT22;25176;51.060;3.720;2023-04-24T05:14:27;10.80;99.90
39493;DHT22;25176;51.060;3.720;2023-04-24T05:16:53;10.90;99.90
39493;DHT22;25176;51.060;3.720;2023-04-24T05:19:18;10.80;99.90
39493;DHT22;25176;51.060;3.720;2023-04-24T05:21:44;10.80;99.90
39493;DHT22;25176;51.060;3.720;2023-04-24T05:24:09;10.70;99.90
39493;DHT22;25176;51.060;3.720;2023-04-24T05:26:35;10.70;99.90
39493;DHT22;25176;51.060;3.720;2023-04-24T05:29:01;10.70;99.90
39493;DHT22;25176;51.060;3.720;2023-04-24T05:31:26;10.80;99.90
39493;DHT22;25176;51.060;3.720;2023-04-24T05:33:52;10.80;99.90
39493;DHT22;25176;51.060;3.720;2023-04-24T05:36:17;10.80;99.90
39493;DHT22;25176;51.060;3.720;2023-04-24T05:38:43;11.00;99.90
39493;DHT22;25176;51.060;3.720;2023-04-24T05:41:08;10.90;99.90
39493;DHT22;25176;51.060;3.720;2023-04-24T05:43:34;10.80;99.90
39493;DHT22;25176;51.060;3.720;2023-04-24T05:46:00;10.80;99.90
39493;DHT22;25176;51.060;3.720;2023-04-24T05:48:25;10.80;99.90
39493;DHT22;25176;51.060;3.720;2023-04-24T05:50:51;10.80;99.90
39493;DHT22;25176;51.060;3.720;2023-04-24T05:53:18;10.80;99.90
39493;DHT22;25176;51.060;3.720;2023-04-24T05:55:43;10.90;99.90
39493;DHT22;25176;51.060;3.720;2023-04-24T05:58:09;11.00;99.90
39493;DHT22;25176;51.060;3.720;2023-04-24T06:00:35;11.20;99.90
39493;DHT22;25176;51.060;3.720;2023-04-24T06:03:01;11.10;99.90
39493;DHT22;25176;51.060;3.720;2023-04-24T06:05:29;11.20;99.90
39493;DHT22;25176;51.060;3.720;2023-04-24T06:07:55;11.10;99.90
39493;DHT22;25176;51.060;3.720;2023-04-24T06:10:21;11.10;99.90
39493;DHT22;25176;51.060;3.720;2023-04-24T06:12:47;11.10;99.90
39493;DHT22;25176;51.060;3.720;2023-04-24T06:15:13;11.00;99.90
39493;DHT22;25176;51.060;3.720;2023-04-24T06:17:39;11.10;99.90
39493;DHT22;25176;51.060;3.720;2023-04-24T06:20:05;11.20;99.90
39493;DHT22;25176;51.060;3.720;2023-04-24T06:22:32;11.20;99.90
39493;DHT22;25176;51.060;3.720;2023-04-24T06:25:09;11.10;99.90
39493;DHT22;25176;51.060;3.720;2023-04-24T06:27:50;11.10;99.90
39493;DHT22;25176;51.060;3.720;2023-04-24T06:30:15;11.10;99.90
39493;DHT22;25176;51.060;3.720;2023-04-24T06:32:41;11.30;99.90
39493;DHT22;25176;51.060;3.720;2023-04-24T06:35:07;11.60;99.90
39493;DHT22;25176;51.060;3.720;2023-04-24T06:37:35;12.00;99.90
39493;DHT22;25176;51.060;3.720;2023-04-24T06:40:06;12.20;99.90
39493;DHT22;25176;51.060;3.720;2023-04-24T06:42:58;12.20;99.90
39493;DHT22;25176;51.060;3.720;2023-04-24T06:45:41;12.40;99.90
39493;DHT22;25176;51.060;3.720;2023-04-24T06:48:15;12.40;99.90
39493;DHT22;25176;51.060;3.720;2023-04-24T06:54:32;12.80;99.90
39493;DHT22;25176;51.060;3.720;2023-04-24T06:58:00;13.10;99.90
39493;DHT22;25176;51.060;3.720;2023-04-24T07:01:09;13.00;99.90
39493;DHT22;25176;51.060;3.720;2023-04-24T07:04:12;13.00;99.90
39493;DHT22;25176;51.060;3.720;2023-04-24T07:07:13;13.00;99.90
39493;DHT22;25176;51.060;3.720;2023-04-24T07:09:53;13.20;99.90
39493;DHT22;25176;51.060;3.720;2023-04-24T07:12:34;13.10;99.90
39493;DHT22;25176;51.060;3.720;2023-04-24T07:15:02;12.80;99.90
39493;DHT22;25176;51.060;3.720;2023-04-24T07:17:33;12.70;99.90
39493;DHT22;25176;51.060;3.720;2023-04-24T07:20:22;12.70;99.90
39493;DHT22;25176;51.060;3.720;2023-04-24T07:26:26;12.20;99.90
39493;DHT22;25176;51.060;3.720;2023-04-24T07:28:52;12.00;99.90
39493;DHT22;25176;51.060;3.720;2023-04-24T07:31:20;12.10;99.90
39493;DHT22;25176;51.060;3.720;2023-04-24T07:33:55;12.30;99.90
39493;DHT22;25176;51.060;3.720;2023-04-24T07:39:31;12.20;99.90
39493;DHT22;25176;51.060;3.720;2023-04-24T07:42:12;12.00;99.90
39493;DHT22;25176;51.060;3.720;2023-04-24T07:44:38;12.20;99.90
39493;DHT22;25176;51.060;3.720;2023-04-24T07:47:05;12.30;99.90
39493;DHT22;25176;51.060;3.720;2023-04-24T07:55:38;12.10;99.90
39493;DHT22;25176;51.060;3.720;2023-04-24T07:58:06;12.30;99.90
39493;DHT22;25176;51.060;3.720;2023-04-24T08:00:44;12.50;99.90
39493;DHT22;25176;51.060;3.720;2023-04-24T08:03:21;12.70;99.90
39493;DHT22;25176;51.060;3.720;2023-04-24T08:05:48;13.40;99.90
39493;DHT22;25176;51.060;3.720;2023-04-24T08:08:13;16.20;98.90
39493;DHT22;25176;51.060;3.720;2023-04-24T08:10:40;18.60;92.80
39493;DHT22;25176;51.060;3.720;2023-04-24T08:13:07;20.50;87.50
39493;DHT22;25176;51.060;3.720;2023-04-24T08:18:35;22.90;76.70
39493;DHT22;25176;51.060;3.720;2023-04-24T08:21:06;23.20;71.90
39493;DHT22;25176;51.060;3.720;2023-04-24T08:24:10;22.40;71.20
39493;DHT22;25176;51.060;3.720;2023-04-24T08:26:37;19.80;74.90
39493;DHT22;25176;51.060;3.720;2023-04-24T08:29:10;19.80;77.00
39493;DHT22;25176;51.060;3.720;2023-04-24T08:32:06;19.50;76.10
39493;DHT22;25176;51.060;3.720;2023-04-24T08:34:49;20.60;76.30
39493;DHT22;25176;51.060;3.720;2023-04-24T08:40:53;22.00;68.10
39493;DHT22;25176;51.060;3.720;2023-04-24T08:43:40;22.00;67.70
39493;DHT22;25176;51.060;3.720;2023-04-24T08:46:26;21.90;68.00
39493;DHT22;25176;51.060;3.720;2023-04-24T08:49:09;24.50;64.00
39493;DHT22;25176;51.060;3.720;2023-04-24T08:51:36;24.20;61.40
39493;DHT22;25176;51.060;3.720;2023-04-24T08:54:04;22.60;62.10
39493;DHT22;25176;51.060;3.720;2023-04-24T08:56:30;20.70;65.30
39493;DHT22;25176;51.060;3.720;2023-04-24T08:58:58;19.90;67.50
39493;DHT22;25176;51.060;3.720;2023-04-24T09:01:25;18.90;69.50
39493;DHT22;25176;51.060;3.720;2023-04-24T09:03:57;18.20;71.40
39493;DHT22;25176;51.060;3.720;2023-04-24T09:12:46;16.30;76.00
39493;DHT22;25176;51.060;3.720;2023-04-24T09:50:40;15.90;79.40
39493;DHT22;25176;51.060;3.720;2023-04-24T09:53:26;15.50;79.50
39493;DHT22;25176;51.060;3.720;2023-04-24T09:56:17;15.60;79.10
39493;DHT22;25176;51.060;3.720;2023-04-24T09:58:55;15.60;78.60
39493;DHT22;25176;51.060;3.720;2023-04-24T10:01:37;15.40;79.50
39493;DHT22;25176;51.060;3.720;2023-04-24T10:04:04;14.90;79.30
39493;DHT22;25176;51.060;3.720;2023-04-24T10:06:37;14.90;80.70
39493;DHT22;25176;51.060;3.720;2023-04-24T10:09:04;15.30;80.80
39493;DHT22;25176;51.060;3.720;2023-04-24T10:11:37;16.20;78.70
39493;DHT22;25176;51.060;3.720;2023-04-24T10:14:19;17.80;73.70
39493;DHT22;25176;51.060;3.720;2023-04-24T10:16:45;17.80;72.80
39493;DHT22;25176;51.060;3.720;2023-04-24T10:19:17;17.70;72.10
39493;DHT22;25176;51.060;3.720;2023-04-24T10:21:58;17.50;72.00
39493;DHT22;25176;51.060;3.720;2023-04-24T10:24:25;16.60;74.40
39493;DHT22;25176;51.060;3.720;2023-04-24T10:26:55;17.00;73.70
39493;DHT22;25176;51.060;3.720;2023-04-24T10:32:36;17.40;74.00
39493;DHT22;25176;51.060;3.720;2023-04-24T10:35:12;18.20;72.60
39493;DHT22;25176;51.060;3.720;2023-04-24T10:37:56;17.90;71.40
39493;DHT22;25176;51.060;3.720;2023-04-24T10:40:33;18.70;69.90
39493;DHT22;25176;51.060;3.720;2023-04-24T10:43:16;18.30;70.30
39493;DHT22;25176;51.060;3.720;2023-04-24T10:46:19;18.00;69.70
39493;DHT22;25176;51.060;3.720;2023-04-24T10:48:58;17.40;71.40
39493;DHT22;25176;51.060;3.720;2023-04-24T10:52:05;17.30;71.50
39493;DHT22;25176;51.060;3.720;2023-04-24T10:54:41;17.70;72.60
39493;DHT22;25176;51.060;3.720;2023-04-24T11:06:28;17.00;71.70
39493;DHT22;25176;51.060;3.720;2023-04-24T11:09:02;16.60;72.20
39493;DHT22;25176;51.060;3.720;2023-04-24T11:11:43;16.30;72.40
39493;DHT22;25176;51.060;3.720;2023-04-24T11:17:34;16.00;74.80
39493;DHT22;25176;51.060;3.720;2023-04-24T12:06:08;15.90;73.70
39493;DHT22;25176;51.060;3.720;2023-04-24T12:08:39;15.70;74.00
39493;DHT22;25176;51.060;3.720;2023-04-24T12:11:20;15.50;73.40
39493;DHT22;25176;51.060;3.720;2023-04-24T12:13:51;15.40;74.60
39493;DHT22;25176;51.060;3.720;2023-04-24T12:16:40;15.50;74.80
39493;DHT22;25176;51.060;3.720;2023-04-24T12:19:47;15.40;76.40
39493;DHT22;25176;51.060;3.720;2023-04-24T12:22:51;15.50;74.80
39493;DHT22;25176;51.060;3.720;2023-04-24T12:25:33;15.50;74.20
39493;DHT22;25176;51.060;3.720;2023-04-24T12:30:29;15.70;72.10
39493;DHT22;25176;51.060;3.720;2023-04-24T12:33:08;15.60;73.10
39493;DHT22;25176;51.060;3.720;2023-04-24T12:35:45;15.90;72.00
39493;DHT22;25176;51.060;3.720;2023-04-24T12:38:11;15.90;72.40
39493;DHT22;25176;51.060;3.720;2023-04-24T12:41:05;15.90;72.70
39493;DHT22;25176;51.060;3.720;2023-04-24T12:43:36;15.80;73.50
39493;DHT22;25176;51.060;3.720;2023-04-24T12:46:20;15.60;73.20
39493;DHT22;25176;51.060;3.720;2023-04-24T12:48:59;15.70;73.60
39493;DHT22;25176;51.060;3.720;2023-04-24T12:51:25;15.60;72.70
39493;DHT22;25176;51.060;3.720;2023-04-24T12:53:51;15.20;73.60
39493;DHT22;25176;51.060;3.720;2023-04-24T12:56:21;15.10;74.10
39493;DHT22;25176;51.060;3.720;2023-04-24T12:59:15;15.10;74.80
39493;DHT22;25176;51.060;3.720;2023-04-24T13:02:18;15.10;74.30
39493;DHT22;25176;51.060;3.720;2023-04-24T13:07:50;15.10;73.00
39493;DHT22;25176;51.060;3.720;2023-04-24T13:10:16;15.00;73.80
39493;DHT22;25176;51.060;3.720;2023-04-24T13:12:41;15.00;73.90
39493;DHT22;25176;51.060;3.720;2023-04-24T13:15:10;14.80;74.10
39493;DHT22;25176;51.060;3.720;2023-04-24T13:17:41;14.60;73.90
39493;DHT22;25176;51.060;3.720;2023-04-24T13:26:34;14.60;73.80
39493;DHT22;25176;51.060;3.720;2023-04-24T13:29:26;14.60;73.50
39493;DHT22;25176;51.060;3.720;2023-04-24T13:31:54;14.80;73.70
39493;DHT22;25176;51.060;3.720;2023-04-24T13:34:22;14.80;73.40
39493;DHT22;25176;51.060;3.720;2023-04-24T13:36:49;14.90;74.00
39493;DHT22;25176;51.060;3.720;2023-04-24T13:39:14;15.00;75.50
39493;DHT22;25176;51.060;3.720;2023-04-24T13:41:41;15.10;75.10
39493;DHT22;25176;51.060;3.720;2023-04-24T13:44:06;15.30;74.90
39493;DHT22;25176;51.060;3.720;2023-04-24T13:46:32;15.50;73.80
39493;DHT22;25176;51.060;3.720;2023-04-24T13:48:58;15.40;73.70
39493;DHT22;25176;51.060;3.720;2023-04-24T13:51:24;15.50;73.60
39493;DHT22;25176;51.060;3.720;2023-04-24T13:53:52;15.40;73.10
39493;DHT22;25176;51.060;3.720;2023-04-24T13:56:18;15.20;73.10
39493;DHT22;25176;51.060;3.720;2023-04-24T13:58:43;15.10;71.90
39493;DHT22;25176;51.060;3.720;2023-04-24T14:01:11;14.70;72.20
39493;DHT22;25176;51.060;3.720;2023-04-24T14:03:37;14.80;74.00
39493;DHT22;25176;51.060;3.720;2023-04-24T14:06:02;14.80;71.90
39493;DHT22;25176;51.060;3.720;2023-04-24T14:08:28;15.10;72.80
39493;DHT22;25176;51.060;3.720;2023-04-24T14:10:54;15.20;72.90
39493;DHT22;25176;51.060;3.720;2023-04-24T14:16:24;15.50;72.00
39493;DHT22;25176;51.060;3.720;2023-04-24T14:18:50;15.40;71.70
39493;DHT22;25176;51.060;3.720;2023-04-24T14:21:16;15.20;72.70
39493;DHT22;25176;51.060;3.720;2023-04-24T14:23:41;15.10;72.20
39493;DHT22;25176;51.060;3.720;2023-04-24T14:26:07;15.10;72.20
39493;DHT22;25176;51.060;3.720;2023-04-24T14:28:33;15.10;72.70
39493;DHT22;25176;51.060;3.720;2023-04-24T14:30:59;15.00;72.70
39493;DHT22;25176;51.060;3.720;2023-04-24T14:33:25;15.20;73.70
39493;DHT22;25176;51.060;3.720;2023-04-24T14:35:51;15.30;72.90
39493;DHT22;25176;51.060;3.720;2023-04-24T14:38:17;15.20;73.00
39493;DHT22;25176;51.060;3.720;2023-04-24T14:40:43;15.20;71.70
39493;DHT22;25176;51.060;3.720;2023-04-24T14:43:08;15.40;70.90
39493;DHT22;25176;51.060;3.720;2023-04-24T14:45:34;15.40;70.70
39493;DHT22;25176;51.060;3.720;2023-04-24T14:47:59;15.40;71.20
39493;DHT22;25176;51.060;3.720;2023-04-24T14:50:25;15.30;71.60
39493;DHT22;25176;51.060;3.720;2023-04-24T14:52:53;15.40;71.90
39493;DHT22;25176;51.060;3.720;2023-04-24T14:55:20;15.40;71.50
39493;DHT22;25176;51.060;3.720;2023-04-24T14:57:46;15.40;71.30
39493;DHT22;25176;51.060;3.720;2023-04-24T15:00:12;15.60;71.60
39493;DHT22;25176;51.060;3.720;2023-04-24T15:02:38;15.80;71.60
39493;DHT22;25176;51.060;3.720;2023-04-24T15:05:07;16.00;69.90
39493;DHT22;25176;51.060;3.720;2023-04-24T15:07:33;15.70;69.60
39493;DHT22;25176;51.060;3.720;2023-04-24T15:10:01;15.50;70.30
39493;DHT22;25176;51.060;3.720;2023-04-24T15:12:26;15.60;70.30
39493;DHT22;25176;51.060;3.720;2023-04-24T15:14:54;15.60;70.80
39493;DHT22;25176;51.060;3.720;2023-04-24T15:17:19;15.90;71.70
39493;DHT22;25176;51.060;3.720;2023-04-24T15:19:45;16.20;69.60
39493;DHT22;25176;51.060;3.720;2023-04-24T15:22:10;16.00;69.40
39493;DHT22;25176;51.060;3.720;2023-04-24T15:24:36;15.90;70.20
39493;DHT22;25176;51.060;3.720;2023-04-24T15:27:02;15.90;69.30
39493;DHT22;25176;51.060;3.720;2023-04-24T15:29:28;15.90;68.50
39493;DHT22;25176;51.060;3.720;2023-04-24T15:31:54;15.80;68.90
39493;DHT22;25176;51.060;3.720;2023-04-24T15:34:19;15.70;69.60
39493;DHT22;25176;51.060;3.720;2023-04-24T15:36:45;15.60;70.20
39493;DHT22;25176;51.060;3.720;2023-04-24T15:39:10;15.70;70.40
39493;DHT22;25176;51.060;3.720;2023-04-24T15:41:36;15.70;70.30
39493;DHT22;25176;51.060;3.720;2023-04-24T15:44:02;15.90;70.00
39493;DHT22;25176;51.060;3.720;2023-04-24T15:46:27;15.70;69.80
39493;DHT22;25176;51.060;3.720;2023-04-24T15:48:53;15.70;70.60
39493;DHT22;25176;51.060;3.720;2023-04-24T15:51:19;15.30;71.40
39493;DHT22;25176;51.060;3.720;2023-04-24T15:53:44;14.90;72.70
39493;DHT22;25176;51.060;3.720;2023-04-24T15:56:11;15.00;72.90
39493;DHT22;25176;51.060;3.720;2023-04-24T15:58:36;15.10;72.40
39493;DHT22;25176;51.060;3.720;2023-04-24T16:01:02;15.40;71.60
39493;DHT22;25176;51.060;3.720;2023-04-24T16:03:28;15.20;71.20
39493;DHT22;25176;51.060;3.720;2023-04-24T16:05:53;14.90;71.30
39493;DHT22;25176;51.060;3.720;2023-04-24T16:08:19;15.10;71.70
39493;DHT22;25176;51.060;3.720;2023-04-24T16:10:45;15.20;71.90
39493;DHT22;25176;51.060;3.720;2023-04-24T16:13:11;15.20;72.40
39493;DHT22;25176;51.060;3.720;2023-04-24T16:15:37;14.90;73.10
39493;DHT22;25176;51.060;3.720;2023-04-24T16:18:03;15.00;73.00
39493;DHT22;25176;51.060;3.720;2023-04-24T16:20:28;14.80;73.70
39493;DHT22;25176;51.060;3.720;2023-04-24T16:22:54;14.80;74.20
39493;DHT22;25176;51.060;3.720;2023-04-24T16:25:19;14.70;74.60
39493;DHT22;25176;51.060;3.720;2023-04-24T16:27:45;14.50;74.60
39493;DHT22;25176;51.060;3.720;2023-04-24T16:30:13;14.40;73.90
39493;DHT22;25176;51.060;3.720;2023-04-24T16:32:38;14.70;73.80
39493;DHT22;25176;51.060;3.720;2023-04-24T16:35:04;14.90;74.10
39493;DHT22;25176;51.060;3.720;2023-04-24T16:37:29;14.90;73.20
39493;DHT22;25176;51.060;3.720;2023-04-24T16:39:55;14.90;73.50
39493;DHT22;25176;51.060;3.720;2023-04-24T16:42:21;15.00;73.20
39493;DHT22;25176;51.060;3.720;2023-04-24T16:44:46;15.00;73.20
39493;DHT22;25176;51.060;3.720;2023-04-24T16:47:12;15.00;72.80
39493;DHT22;25176;51.060;3.720;2023-04-24T16:49:41;15.10;72.60
39493;DHT22;25176;51.060;3.720;2023-04-24T16:52:06;14.90;72.40
39493;DHT22;25176;51.060;3.720;2023-04-24T16:54:32;14.90;72.50
39493;DHT22;25176;51.060;3.720;2023-04-24T16:57:01;14.80;73.10
39493;DHT22;25176;51.060;3.720;2023-04-24T16:59:28;14.70;72.90
39493;DHT22;25176;51.060;3.720;2023-04-24T17:01:53;14.80;73.30
39493;DHT22;25176;51.060;3.720;2023-04-24T17:04:19;14.70;73.80
39493;DHT22;25176;51.060;3.720;2023-04-24T17:06:44;14.80;73.60
39493;DHT22;25176;51.060;3.720;2023-04-24T17:09:10;14.70;74.30
39493;DHT22;25176;51.060;3.720;2023-04-24T17:11:37;14.70;75.00
39493;DHT22;25176;51.060;3.720;2023-04-24T17:14:03;14.50;75.50
39493;DHT22;25176;51.060;3.720;2023-04-24T17:16:30;14.30;75.90
39493;DHT22;25176;51.060;3.720;2023-04-24T17:18:56;14.10;76.60
39493;DHT22;25176;51.060;3.720;2023-04-24T17:21:21;14.10;77.00
39493;DHT22;25176;51.060;3.720;2023-04-24T17:23:47;14.40;76.70
39493;DHT22;25176;51.060;3.720;2023-04-24T17:26:12;14.20;76.80
39493;DHT22;25176;51.060;3.720;2023-04-24T17:28:38;14.20;76.80
39493;DHT22;25176;51.060;3.720;2023-04-24T17:31:03;14.00;77.30
39493;DHT22;25176;51.060;3.720;2023-04-24T17:33:29;14.10;77.20
39493;DHT22;25176;51.060;3.720;2023-04-24T17:35:55;13.90;77.30
39493;DHT22;25176;51.060;3.720;2023-04-24T17:38:22;13.80;78.10
39493;DHT22;25176;51.060;3.720;2023-04-24T17:40:47;13.90;78.00
39493;DHT22;25176;51.060;3.720;2023-04-24T17:43:19;14.10;77.40
39493;DHT22;25176;51.060;3.720;2023-04-24T17:45:49;14.20;77.40
39493;DHT22;25176;51.060;3.720;2023-04-24T17:48:15;14.10;77.90
39493;DHT22;25176;51.060;3.720;2023-04-24T17:50:41;14.10;78.50
39493;DHT22;25176;51.060;3.720;2023-04-24T17:53:06;14.20;78.20
39493;DHT22;25176;51.060;3.720;2023-04-24T17:55:32;14.10;77.40
39493;DHT22;25176;51.060;3.720;2023-04-24T17:58:01;14.30;77.30
39493;DHT22;25176;51.060;3.720;2023-04-24T18:00:31;14.30;76.50
39493;DHT22;25176;51.060;3.720;2023-04-24T18:02:57;14.30;76.40